Time;durP1;ratioP1;P1;durP2;ratioP2;P2;SDS_P1;SDS_P2;PMS_P1;PMS_P2;Temp;Humidity;BMP_temperature;BMP_pressure;BME280_temperature;BME280_humidity;BME280_pressure;Samples;Min_cycle;Max_cycle;Signal;HPM_P1;HPM_P2
2023/04/12 00:00:43;;;;;;;;;;;;;;;;;;4883766;29;19950;-85
2023/04/12 00:03:09;;;;;;;;;;;;;;;;;;4899472;29;19919;-83
2023/04/12 00:05:37;;;;;;;;;;;;;;;;;;4883841;29;19926;-84
2023/04/12 00:08:13;;;;;;;;;;;;;;;;;;4885070;29;19922;-84
2023/04/12 00:10:44;;;;;;;;;;;;;;;;;;4899602;29;19923;-84
2023/04/12 00:13:09;;;;;;;;;;;;;;;;;;4884132;29;20092;-85
2023/04/12 00:15:35;;;;;;;;;;;;;;;;;;4900899;29;20071;-84
2023/04/12 00:18:01;;;;;;;;;;;;;;;;;;4900443;29;19922;-83
2023/04/12 00:20:29;;;;;;;;;;;;;;;;;;4886884;29;19920;-84
2023/04/12 00:22:56;;;;;;;;;;;;;;;;;;4886380;29;19980;-84
2023/04/12 00:25:25;;;;;;;;;;;;;;;;;;4885362;29;19915;-84
2023/04/12 00:27:50;;;;;;;;;;;;;;;;;;4886290;29;19915;-84
2023/04/12 00:30:16;;;;;;;;;;;;;;;;;;4887247;29;19967;-85
2023/04/12 00:32:42;;;;;;;;;;;;;;;;;;4908350;29;19916;-83
2023/04/12 00:35:08;;;;;;;;;;;;;;;;;;4893002;29;19923;-84
2023/04/12 00:37:35;;;;;;;;;;;;;;;;;;4894084;29;19916;-85
2023/04/12 00:40:06;;;;;;;;;;;;;;;;;;4909666;29;20303;-85
2023/04/12 00:42:31;;;;;;;;;;;;;;;;;;4908322;29;19926;-83
2023/04/12 00:44:58;;;;;;;;;;;;;;;;;;4904084;29;19968;-84
2023/04/12 00:47:24;;;;;;;;;;;;;;;;;;4894902;29;19912;-81
2023/04/12 00:49:51;;;;;;;;;;;;;;;;;;4913715;29;19916;-84
2023/04/12 00:52:17;;;;;;;;;;;;;;;;;;4878302;29;19923;-84
2023/04/12 00:54:45;;;;;;;;;;;;;;;;;;4911539;29;19916;-81
2023/04/12 00:57:11;;;;;;;;;;;;;;;;;;4897529;29;19913;-80
2023/04/12 00:59:40;;;;;;;;;;;;;;;;;;4894607;29;19923;-80
2023/04/12 01:02:06;;;;;;;;;;;;;;;;;;4888630;29;19923;-81
2023/04/12 01:04:33;;;;;;;;;;;;;;;;;;4875337;29;19915;-81
2023/04/12 01:07:02;;;;;;;;;;;;;;;;;;4891379;29;19922;-81
2023/04/12 01:09:37;;;;;;;;;;;;;;;;;;4891882;29;19923;-83
2023/04/12 01:12:05;;;;;;;;;;;;;;;;;;4897901;29;19916;-84
2023/04/12 01:14:36;;;;;;;;;;;;;;;;;;4886297;29;20555;-78
2023/04/12 01:17:02;;;;;;;;;;;;;;;;;;4890727;29;19927;-83
2023/04/12 01:19:28;;;;;;;;;;;;;;;;;;4890841;29;19927;-81
2023/04/12 01:21:54;;;;;;;;;;;;;;;;;;4890959;29;19916;-81
2023/04/12 01:24:22;;;;;;;;;;;;;;;;;;4890015;29;19922;-82
2023/04/12 01:26:48;;;;;;;;;;;;;;;;;;4890637;29;19956;-83
2023/04/12 01:29:14;;;;;;;;;;;;;;;;;;4888899;29;20373;-86
2023/04/12 01:31:39;;;;;;;;;;;;;;;;;;4895083;29;19923;-86
2023/04/12 01:34:05;;;;;;;;;;;;;;;;;;4891099;29;19915;-86
2023/04/12 01:36:31;;;;;;;;;;;;;;;;;;4892032;29;19922;-82
2023/04/12 01:38:59;;;;;;;;;;;;;;;;;;4894498;29;19938;-84
2023/04/12 01:41:28;;;;;;;;;;;;;;;;;;4893626;29;19922;-83
2023/04/12 01:43:53;;;;;;;;;;;;;;;;;;4877064;29;19919;-80
2023/04/12 01:46:21;;;;;;;;;;;;;;;;;;4895437;29;20014;-84
2023/04/12 01:48:50;;;;;;;;;;;;;;;;;;4896223;29;19919;-84
2023/04/12 01:51:15;;;;;;;;;;;;;;;;;;4894003;29;20015;-81
2023/04/12 01:53:41;;;;;;;;;;;;;;;;;;4876517;29;19916;-84
2023/04/12 01:56:07;;;;;;;;;;;;;;;;;;4875821;29;19916;-84
2023/04/12 01:58:32;;;;;;;;;;;;;;;;;;4876052;29;20387;-83
2023/04/12 02:00:58;;;;;;;;;;;;;;;;;;4888386;29;19980;-82
2023/04/12 02:03:24;;;;;;;;;;;;;;;;;;4889951;29;19955;-82
2023/04/12 02:05:52;;;;;;;;;;;;;;;;;;4891945;29;19930;-84
2023/04/12 02:08:19;;;;;;;;;;;;;;;;;;4910636;29;19971;-83
2023/04/12 02:10:45;;;;;;;;;;;;;;;;;;4912183;29;19915;-80
2023/04/12 02:13:16;;;;;;;;;;;;;;;;;;4912307;29;19915;-87
2023/04/12 02:15:44;;;;;;;;;;;;;;;;;;4929515;29;19963;-83
2023/04/12 02:18:12;;;;;;;;;;;;;;;;;;4915210;29;19915;-86
2023/04/12 02:20:39;;;;;;;;;;;;;;;;;;4906106;29;19922;-84
2023/04/12 02:23:05;;;;;;;;;;;;;;;;;;4884306;29;19923;-84
2023/04/12 02:25:32;;;;;;;;;;;;;;;;;;4916195;29;19916;-83
2023/04/12 02:27:58;;;;;;;;;;;;;;;;;;4888162;29;19922;-82
2023/04/12 02:30:27;;;;;;;;;;;;;;;;;;4903591;29;19916;-84
2023/04/12 02:32:52;;;;;;;;;;;;;;;;;;4902395;29;19922;-84
2023/04/12 02:35:23;;;;;;;;;;;;;;;;;;4885222;29;19923;-84
2023/04/12 02:37:54;;;;;;;;;;;;;;;;;;4873976;29;20013;-84
2023/04/12 02:40:22;;;;;;;;;;;;;;;;;;4892574;29;20016;-83
2023/04/12 02:42:47;;;;;;;;;;;;;;;;;;4910262;29;20063;-80
2023/04/12 02:45:14;;;;;;;;;;;;;;;;;;4892086;29;19911;-80
2023/04/12 02:47:40;;;;;;;;;;;;;;;;;;4890004;29;19921;-81
2023/04/12 02:50:08;;;;;;;;;;;;;;;;;;4903469;29;19942;-81
2023/04/12 02:52:42;;;;;;;;;;;;;;;;;;4906904;29;19948;-79
2023/04/12 02:55:13;;;;;;;;;;;;;;;;;;4896636;29;19915;-81
2023/04/12 02:57:40;;;;;;;;;;;;;;;;;;4914128;29;19975;-78
2023/04/12 03:00:18;;;;;;;;;;;;;;;;;;4908434;29;19955;-82
2023/04/12 03:02:51;;;;;;;;;;;;;;;;;;4901116;29;19919;-80
2023/04/12 03:05:21;;;;;;;;;;;;;;;;;;4907731;29;19941;-82
2023/04/12 03:07:47;;;;;;;;;;;;;;;;;;4889607;29;20006;-81
2023/04/12 03:10:16;;;;;;;;;;;;;;;;;;4886258;29;19915;-80
2023/04/12 03:12:52;;;;;;;;;;;;;;;;;;4871223;29;20364;-83
2023/04/12 03:15:22;;;;;;;;;;;;;;;;;;4900370;29;20045;-82
2023/04/12 03:17:49;;;;;;;;;;;;;;;;;;4886264;29;20002;-82
2023/04/12 03:20:16;;;;;;;;;;;;;;;;;;4886511;29;20383;-83
2023/04/12 03:22:48;;;;;;;;;;;;;;;;;;4888131;29;19919;-84
2023/04/12 03:25:16;;;;;;;;;;;;;;;;;;4889037;29;19980;-81
2023/04/12 03:27:46;;;;;;;;;;;;;;;;;;4888842;29;19969;-80
2023/04/12 03:30:14;;;;;;;;;;;;;;;;;;4887988;29;19998;-85
2023/04/12 03:32:41;;;;;;;;;;;;;;;;;;4889189;29;19915;-84
2023/04/12 03:35:08;;;;;;;;;;;;;;;;;;4901472;29;19998;-81
2023/04/12 03:37:34;;;;;;;;;;;;;;;;;;4902636;29;19957;-81
2023/04/12 03:40:00;;;;;;;;;;;;;;;;;;4886935;29;19939;-82
2023/04/12 03:42:26;;;;;;;;;;;;;;;;;;4907800;29;19923;-82
2023/04/12 03:44:52;;;;;;;;;;;;;;;;;;4891102;29;19915;-82
2023/04/12 03:47:21;;;;;;;;;;;;;;;;;;4878615;29;19991;-85
2023/04/12 03:49:47;;;;;;;;;;;;;;;;;;4894679;29;19915;-86
2023/04/12 03:52:13;;;;;;;;;;;;;;;;;;4895910;29;19955;-83
2023/04/12 03:54:41;;;;;;;;;;;;;;;;;;4908936;29;19915;-82
2023/04/12 03:57:15;;;;;;;;;;;;;;;;;;4924673;29;19954;-82
2023/04/12 03:59:50;;;;;;;;;;;;;;;;;;4927323;29;19922;-82
2023/04/12 04:02:25;;;;;;;;;;;;;;;;;;4913077;29;20454;-83
2023/04/12 04:55:05;;;;;;;;;;;;;;;;;;5457528;23;19911;-81
2023/04/12 05:05:41;;;;;;;;;;;;;;;;;;5815348;23;19923;-84
2023/04/12 08:20:17;;;;;;;;;;;;;;;;;;5259036;23;19951;-84
2023/04/12 08:22:42;;;;;;;;;;;;;;;;;;4932320;29;19969;-83
2023/04/12 08:25:11;;;;;;;;;;;;;;;;;;4916483;29;19915;-82
2023/04/12 08:27:36;;;;;;;;;;;;;;;;;;4925766;29;19899;-84
2023/04/12 08:30:02;;;;;;;;;;;;;;;;;;4922390;29;19961;-84
2023/04/12 08:32:28;;;;;;;;;;;;;;;;;;4921774;29;19903;-83
2023/04/12 08:34:54;;;;;;;;;;;;;;;;;;5409086;23;19946;-84
2023/04/12 08:37:22;;;;;;;;;;;;;;;;;;4928809;28;19978;-84
2023/04/12 08:39:48;;;;;;;;;;;;;;;;;;4926269;29;19981;-83
2023/04/12 08:42:15;;;;;;;;;;;;;;;;;;4941861;28;19935;-84
2023/04/12 08:44:41;;;;;;;;;;;;;;;;;;4943165;28;19922;-83
2023/04/12 08:47:10;;;;;;;;;;;;;;;;;;5028432;23;19919;-85
2023/04/12 08:49:41;;;;;;;;;;;;;;;;;;4941124;28;19947;-84
2023/04/12 08:52:07;;;;;;;;;;;;;;;;;;4941369;28;19904;-83
2023/04/12 08:54:35;;;;;;;;;;;;;;;;;;4925354;28;19915;-83
2023/04/12 08:57:09;;;;;;;;;;;;;;;;;;4941200;29;19961;-84
2023/04/12 08:59:45;;;;;;;;;;;;;;;;;;4926432;29;19927;-83
2023/04/12 09:02:10;;;;;;;;;;;;;;;;;;4939286;28;19919;-83
2023/04/12 09:04:36;;;;;;;;;;;;;;;;;;4917471;29;19915;-84
2023/04/12 09:07:04;;;;;;;;;;;;;;;;;;4909186;29;19915;-83
2023/04/12 09:09:29;;;;;;;;;;;;;;;;;;4877348;29;19955;-83
2023/04/12 09:11:55;;;;;;;;;;;;;;;;;;4895003;29;19915;-83
2023/04/12 09:14:21;;;;;;;;;;;;;;;;;;4914596;29;20368;-83
2023/04/12 09:16:47;;;;;;;;;;;;;;;;;;4909253;29;19915;-83
2023/04/12 09:19:15;;;;;;;;;;;;;;;;;;4881183;29;19979;-84
2023/04/12 09:21:41;;;;;;;;;;;;;;;;;;4915077;29;20394;-82
2023/04/12 09:24:12;;;;;;;;;;;;;;;;;;4920068;29;19919;-82
2023/04/12 09:26:37;;;;;;;;;;;;;;;;;;4918305;29;20332;-82
2023/04/12 09:29:03;;;;;;;;;;;;;;;;;;4908270;29;19967;-82
2023/04/12 09:31:28;;;;;;;;;;;;;;;;;;4921344;29;19903;-82
2023/04/12 09:33:54;;;;;;;;;;;;;;;;;;4935466;29;19982;-82
2023/04/12 09:36:19;;;;;;;;;;;;;;;;;;4921570;29;19916;-82
2023/04/12 09:38:45;;;;;;;;;;;;;;;;;;4934911;29;19916;-82
2023/04/12 09:41:10;;;;;;;;;;;;;;;;;;4938344;29;19975;-82
2023/04/12 09:43:36;;;;;;;;;;;;;;;;;;4912087;29;19944;-81
2023/04/12 09:46:01;;;;;;;;;;;;;;;;;;4917939;29;19915;-80
2023/04/12 09:48:27;;;;;;;;;;;;;;;;;;4910383;29;20371;-80
2023/04/12 09:50:53;;;;;;;;;;;;;;;;;;4922120;29;19942;-80
2023/04/12 09:53:18;;;;;;;;;;;;;;;;;;4915761;29;20399;-80
2023/04/12 09:55:43;;;;;;;;;;;;;;;;;;4890339;29;20014;-79
2023/04/12 09:58:09;;;;;;;;;;;;;;;;;;4912444;29;20068;-80
2023/04/12 10:00:35;;;;;;;;;;;;;;;;;;4918413;29;19916;-80
2023/04/12 10:03:01;;;;;;;;;;;;;;;;;;4898640;29;19947;-79
2023/04/12 10:05:26;;;;;;;;;;;;;;;;;;4932694;23;20017;-81
2023/04/12 10:07:52;;;;;;;;;;;;;;;;;;4956190;29;20005;-83
2023/04/12 10:10:17;;;;;;;;;;;;;;;;;;4939495;29;19915;-81
2023/04/12 10:12:44;;;;;;;;;;;;;;;;;;4940342;28;19922;-82
2023/04/12 10:15:12;;;;;;;;;;;;;;;;;;4948256;28;19934;-81
2023/04/12 10:17:38;;;;;;;;;;;;;;;;;;4925198;29;19921;-79
2023/04/12 10:20:04;;;;;;;;;;;;;;;;;;4908395;29;20009;-76
2023/04/12 10:22:29;;;;;;;;;;;;;;;;;;4934407;29;19922;-92
2023/04/12 10:24:54;;;;;;;;;;;;;;;;;;4938347;29;20027;-93
2023/04/12 10:27:20;;;;;;;;;;;;;;;;;;4916028;29;19946;-93
2023/04/12 10:29:46;;;;;;;;;;;;;;;;;;4915271;29;19916;-95
2023/04/12 10:32:11;;;;;;;;;;;;;;;;;;4903806;29;19916;-94
2023/04/12 10:34:36;;;;;;;;;;;;;;;;;;4887377;29;20403;-93
2023/04/12 10:37:03;;;;;;;;;;;;;;;;;;4902564;29;20021;-93
2023/04/12 10:39:28;;;;;;;;;;;;;;;;;;4907080;29;20268;-94
2023/04/12 10:41:53;;;;;;;;;;;;;;;;;;4903079;29;19979;-94
2023/04/12 10:44:19;;;;;;;;;;;;;;;;;;4902647;29;19923;-95
2023/04/12 10:46:45;;;;;;;;;;;;;;;;;;4920613;29;19962;-95
2023/04/12 10:49:10;;;;;;;;;;;;;;;;;;4905943;29;19922;-94
2023/04/12 10:51:36;;;;;;;;;;;;;;;;;;4894484;29;19915;-93
2023/04/12 10:54:11;;;;;;;;;;;;;;;;;;4907314;29;19915;-91
2023/04/12 10:56:37;;;;;;;;;;;;;;;;;;4903625;29;19938;-93
2023/04/12 10:59:02;;;;;;;;;;;;;;;;;;4897387;29;19915;-93
2023/04/12 11:01:32;;;;;;;;;;;;;;;;;;4898944;29;19915;-93
2023/04/12 11:03:57;;;;;;;;;;;;;;;;;;4918120;29;19954;-91
2023/04/12 11:06:23;;;;;;;;;;;;;;;;;;4922312;29;19919;-91
2023/04/12 11:09:07;;;;;;;;;;;;;;;;;;4911036;29;19922;-93
2023/04/12 11:11:33;;;;;;;;;;;;;;;;;;4905005;29;19960;-93
2023/04/12 11:13:58;;;;;;;;;;;;;;;;;;4910437;29;19938;-92
2023/04/12 11:16:24;;;;;;;;;;;;;;;;;;4891272;29;19919;-93
2023/04/12 11:18:49;;;;;;;;;;;;;;;;;;4894442;29;20276;-91
2023/04/12 11:21:15;;;;;;;;;;;;;;;;;;4924020;29;20390;-91
2023/04/12 11:23:40;;;;;;;;;;;;;;;;;;4893843;29;19970;-90
2023/04/12 11:26:06;;;;;;;;;;;;;;;;;;4905199;29;19915;-92
2023/04/12 11:28:31;;;;;;;;;;;;;;;;;;4932099;28;19974;-92
2023/04/12 11:30:57;;;;;;;;;;;;;;;;;;4922201;29;19919;-92
2023/04/12 11:33:22;;;;;;;;;;;;;;;;;;4915422;29;19987;-92
2023/04/12 11:35:47;;;;;;;;;;;;;;;;;;4928067;29;19946;-93
2023/04/12 11:38:13;;;;;;;;;;;;;;;;;;4915011;29;19911;-93
2023/04/12 11:40:38;;;;;;;;;;;;;;;;;;4925753;28;19935;-95
2023/04/12 11:43:04;;;;;;;;;;;;;;;;;;4927403;29;19923;-93
2023/04/12 11:45:30;;;;;;;;;;;;;;;;;;4927569;29;19911;-94
2023/04/12 11:47:56;;;;;;;;;;;;;;;;;;4947857;28;19907;-93
2023/04/12 11:50:22;;;;;;;;;;;;;;;;;;4924931;29;19907;-94
2023/04/12 11:52:47;;;;;;;;;;;;;;;;;;4911587;28;19978;-93
2023/04/12 11:55:13;;;;;;;;;;;;;;;;;;4925213;29;19975;-94
2023/04/12 11:57:38;;;;;;;;;;;;;;;;;;4923192;29;19983;-92
2023/04/12 12:00:05;;;;;;;;;;;;;;;;;;4923086;29;19986;-94
2023/04/12 12:02:37;;;;;;;;;;;;;;;;;;4928143;29;19923;-92
2023/04/12 12:05:03;;;;;;;;;;;;;;;;;;4926418;29;19919;-93
2023/04/12 12:07:31;;;;;;;;;;;;;;;;;;4905141;29;20014;-94
2023/04/12 12:09:57;;;;;;;;;;;;;;;;;;4911979;29;19915;-93
2023/04/12 12:12:22;;;;;;;;;;;;;;;;;;4910960;29;19919;-93
2023/04/12 12:14:48;;;;;;;;;;;;;;;;;;4911704;29;20295;-92
2023/04/12 12:17:13;;;;;;;;;;;;;;;;;;4908991;29;20350;-94
2023/04/12 12:19:38;;;;;;;;;;;;;;;;;;4924052;29;19915;-93
2023/04/12 12:22:06;;;;;;;;;;;;;;;;;;4925086;29;19915;-94
2023/04/12 12:24:32;;;;;;;;;;;;;;;;;;4925253;29;19971;-94
2023/04/12 12:26:58;;;;;;;;;;;;;;;;;;4928024;29;19922;-94
2023/04/12 12:29:25;;;;;;;;;;;;;;;;;;4920063;29;19915;-93
2023/04/12 12:31:52;;;;;;;;;;;;;;;;;;4915785;29;19916;-92
2023/04/12 12:34:18;;;;;;;;;;;;;;;;;;4913737;29;19922;-93
2023/04/12 12:36:44;;;;;;;;;;;;;;;;;;4913565;29;20007;-94
2023/04/12 12:39:09;;;;;;;;;;;;;;;;;;4906579;29;19932;-95
2023/04/12 12:41:35;;;;;;;;;;;;;;;;;;4904971;29;20458;-93
2023/04/12 12:44:01;;;;;;;;;;;;;;;;;;4906029;29;19925;-93
2023/04/12 12:46:26;;;;;;;;;;;;;;;;;;4906011;29;20302;-93
2023/04/12 12:54:16;;;;;;;;;;;;;;;;;;5994115;23;20586;-86
2023/04/12 12:56:42;;;;;;;;;;;;;;;;;;4905201;29;19920;-90
2023/04/12 12:59:07;;;;;;;;;;;;;;;;;;4909595;29;19931;-92
2023/04/12 13:01:33;;;;;;;;;;;;;;;;;;4893441;29;19958;-92
2023/04/12 13:03:58;;;;;;;;;;;;;;;;;;4906522;29;20002;-93
2023/04/12 13:06:26;;;;;;;;;;;;;;;;;;4895169;29;20368;-93
2023/04/12 13:08:53;;;;;;;;;;;;;;;;;;4875322;29;19915;-94
2023/04/12 13:11:19;;;;;;;;;;;;;;;;;;4876001;29;19972;-94
2023/04/12 13:13:45;;;;;;;;;;;;;;;;;;4869467;29;19923;-93
2023/04/12 13:16:10;;;;;;;;;;;;;;;;;;4853973;29;19916;-94
2023/04/12 13:18:36;;;;;;;;;;;;;;;;;;4883804;29;19965;-94
2023/04/12 13:21:02;;;;;;;;;;;;;;;;;;4876476;29;19915;-92
2023/04/12 13:23:27;;;;;;;;;;;;;;;;;;4896367;29;19920;-94
2023/04/12 13:25:53;;;;;;;;;;;;;;;;;;4895903;29;19919;-94
2023/04/12 13:28:19;;;;;;;;;;;;;;;;;;4887384;29;19982;-92
2023/04/12 13:30:47;;;;;;;;;;;;;;;;;;4881064;29;19962;-95
2023/04/12 13:33:12;;;;;;;;;;;;;;;;;;4902088;29;19915;-95
2023/04/12 13:35:38;;;;;;;;;;;;;;;;;;4869816;29;20443;-95
2023/04/12 13:38:04;;;;;;;;;;;;;;;;;;4869028;29;20387;-95
2023/04/12 13:40:29;;;;;;;;;;;;;;;;;;4855289;29;19931;-96
2023/04/12 13:42:55;;;;;;;;;;;;;;;;;;4854257;29;20296;-96
2023/04/12 13:45:23;;;;;;;;;;;;;;;;;;4885476;29;19955;-95
2023/04/12 13:47:49;;;;;;;;;;;;;;;;;;4865295;29;19955;-81
2023/04/12 13:50:16;;;;;;;;;;;;;;;;;;4896009;29;20329;-80
2023/04/12 13:52:41;;;;;;;;;;;;;;;;;;4887256;29;20395;-85
2023/04/12 13:55:07;;;;;;;;;;;;;;;;;;4895993;29;19971;-79
2023/04/12 13:57:32;;;;;;;;;;;;;;;;;;4885291;29;19915;-81
2023/04/12 13:59:57;;;;;;;;;;;;;;;;;;4891021;29;20368;-80
2023/04/12 14:02:23;;;;;;;;;;;;;;;;;;4874941;29;19922;-77
2023/04/12 14:04:48;;;;;;;;;;;;;;;;;;4885058;29;19935;-79
2023/04/12 14:07:13;;;;;;;;;;;;;;;;;;4896237;29;19966;-80
2023/04/12 14:09:39;;;;;;;;;;;;;;;;;;4885435;29;20303;-79
2023/04/12 14:12:04;;;;;;;;;;;;;;;;;;4890938;29;20224;-80
2023/04/12 14:14:30;;;;;;;;;;;;;;;;;;4897587;29;19948;-79
2023/04/12 14:17:01;;;;;;;;;;;;;;;;;;4884911;29;19919;-91
2023/04/12 14:19:27;;;;;;;;;;;;;;;;;;4866616;29;19922;-91
2023/04/12 14:21:52;;;;;;;;;;;;;;;;;;4882231;29;19916;-90
2023/04/12 14:24:18;;;;;;;;;;;;;;;;;;4868454;29;19987;-92
2023/04/12 14:26:44;;;;;;;;;;;;;;;;;;4896137;29;19916;-91
2023/04/12 14:29:09;;;;;;;;;;;;;;;;;;4885607;29;20436;-91
2023/04/12 14:31:35;;;;;;;;;;;;;;;;;;4900226;29;19920;-92
2023/04/12 14:34:00;;;;;;;;;;;;;;;;;;4880183;29;19923;-91
2023/04/12 14:36:26;;;;;;;;;;;;;;;;;;4876076;29;20006;-92
2023/04/12 14:38:51;;;;;;;;;;;;;;;;;;4867584;29;19915;-91
2023/04/12 14:41:17;;;;;;;;;;;;;;;;;;4900419;29;19919;-95
2023/04/12 14:43:42;;;;;;;;;;;;;;;;;;4868901;29;19987;-93
2023/04/12 14:46:08;;;;;;;;;;;;;;;;;;4895474;29;19923;-94
2023/04/12 14:48:34;;;;;;;;;;;;;;;;;;4888585;29;19947;-93
2023/04/12 14:50:59;;;;;;;;;;;;;;;;;;4886344;29;19916;-94
2023/04/12 14:53:28;;;;;;;;;;;;;;;;;;4885099;29;19951;-93
2023/04/12 14:55:54;;;;;;;;;;;;;;;;;;4860368;29;19948;-94
2023/04/12 14:58:19;;;;;;;;;;;;;;;;;;4878114;29;19945;-94
2023/04/12 15:00:48;;;;;;;;;;;;;;;;;;4883857;29;19938;-88
2023/04/12 15:03:14;;;;;;;;;;;;;;;;;;4912164;29;20359;-88
2023/04/12 15:05:39;;;;;;;;;;;;;;;;;;4900143;29;19916;-82
2023/04/12 15:08:05;;;;;;;;;;;;;;;;;;4901557;29;19979;-81
2023/04/12 15:10:30;;;;;;;;;;;;;;;;;;4894425;29;19916;-79
2023/04/12 15:12:56;;;;;;;;;;;;;;;;;;4870194;29;19945;-78
2023/04/12 15:15:22;;;;;;;;;;;;;;;;;;4898725;29;19964;-80
2023/04/12 15:17:47;;;;;;;;;;;;;;;;;;4891204;29;19923;-79
2023/04/12 15:20:14;;;;;;;;;;;;;;;;;;4889676;29;19980;-81
2023/04/12 15:22:40;;;;;;;;;;;;;;;;;;4891769;29;19919;-81
2023/04/12 15:25:06;;;;;;;;;;;;;;;;;;4881282;29;19926;-79
2023/04/12 15:27:32;;;;;;;;;;;;;;;;;;4894453;29;19915;-80
2023/04/12 15:29:57;;;;;;;;;;;;;;;;;;4897885;29;20284;-80
2023/04/12 15:32:25;;;;;;;;;;;;;;;;;;4898148;29;20295;-80
2023/04/12 15:34:50;;;;;;;;;;;;;;;;;;4897973;29;19916;-78
2023/04/12 15:37:16;;;;;;;;;;;;;;;;;;4898468;29;19926;-81
2023/04/12 15:39:41;;;;;;;;;;;;;;;;;;4865945;29;19915;-81
2023/04/12 15:42:07;;;;;;;;;;;;;;;;;;4897841;29;19919;-82
2023/04/12 15:44:32;;;;;;;;;;;;;;;;;;4897769;29;20336;-81
2023/04/12 15:46:58;;;;;;;;;;;;;;;;;;4897771;29;19920;-79
2023/04/12 15:49:24;;;;;;;;;;;;;;;;;;4896525;29;20010;-80
2023/04/12 15:51:50;;;;;;;;;;;;;;;;;;4896741;29;20400;-80
2023/04/12 15:54:15;;;;;;;;;;;;;;;;;;4896323;29;19921;-80
2023/04/12 15:56:41;;;;;;;;;;;;;;;;;;4895624;29;19919;-81
2023/04/12 15:59:07;;;;;;;;;;;;;;;;;;4896210;29;20006;-81
2023/04/12 16:01:34;;;;;;;;;;;;;;;;;;4897364;29;19961;-81
2023/04/12 16:04:01;;;;;;;;;;;;;;;;;;4896164;29;20067;-81
2023/04/12 16:06:29;;;;;;;;;;;;;;;;;;4896514;29;19915;-83
2023/04/12 16:08:55;;;;;;;;;;;;;;;;;;4896746;29;19923;-84
2023/04/12 16:11:22;;;;;;;;;;;;;;;;;;4896936;29;19916;-81
2023/04/12 16:13:48;;;;;;;;;;;;;;;;;;4880971;29;19915;-84
2023/04/12 16:16:14;;;;;;;;;;;;;;;;;;4897217;29;19915;-84
2023/04/12 16:18:40;;;;;;;;;;;;;;;;;;4897334;29;20323;-83
2023/04/12 16:21:05;;;;;;;;;;;;;;;;;;4896463;29;19917;-83
2023/04/12 16:23:31;;;;;;;;;;;;;;;;;;4897521;29;20451;-89
2023/04/12 16:25:58;;;;;;;;;;;;;;;;;;4896235;29;19916;-88
2023/04/12 16:28:24;;;;;;;;;;;;;;;;;;4897764;29;20402;-89
2023/04/12 16:30:49;;;;;;;;;;;;;;;;;;4897671;29;19916;-86
2023/04/12 16:33:14;;;;;;;;;;;;;;;;;;4897528;29;19971;-88
2023/04/12 16:35:42;;;;;;;;;;;;;;;;;;4895426;29;20171;-89
2023/04/12 16:38:07;;;;;;;;;;;;;;;;;;4897539;29;19920;-89
2023/04/12 16:40:32;;;;;;;;;;;;;;;;;;4898766;29;19971;-90
2023/04/12 16:42:58;;;;;;;;;;;;;;;;;;4900440;29;19919;-89
2023/04/12 16:45:23;;;;;;;;;;;;;;;;;;4885252;29;20387;-89
2023/04/12 16:47:49;;;;;;;;;;;;;;;;;;4904473;29;19916;-88
2023/04/12 16:50:15;;;;;;;;;;;;;;;;;;4904027;29;20395;-90
2023/04/12 16:52:40;;;;;;;;;;;;;;;;;;4874745;29;20351;-90
2023/04/12 16:55:09;;;;;;;;;;;;;;;;;;4903163;29;19931;-88
2023/04/12 16:57:35;;;;;;;;;;;;;;;;;;4900925;29;20374;-90
2023/04/12 17:00:00;;;;;;;;;;;;;;;;;;4904139;29;19915;-90
2023/04/12 17:02:26;;;;;;;;;;;;;;;;;;4885608;29;20010;-90
2023/04/12 17:04:51;;;;;;;;;;;;;;;;;;4901994;29;19915;-90
2023/04/12 17:07:17;;;;;;;;;;;;;;;;;;4901359;29;19964;-88
2023/04/12 17:09:43;;;;;;;;;;;;;;;;;;4902256;29;20305;-90
2023/04/12 17:12:08;;;;;;;;;;;;;;;;;;4902588;29;20002;-90
2023/04/12 17:14:35;;;;;;;;;;;;;;;;;;4919371;29;20002;-90
2023/04/12 17:17:01;;;;;;;;;;;;;;;;;;4899960;29;19923;-89
2023/04/12 17:19:26;;;;;;;;;;;;;;;;;;4932234;29;19915;-87
2023/04/12 17:21:52;;;;;;;;;;;;;;;;;;4899570;29;19916;-81
2023/04/12 17:24:18;;;;;;;;;;;;;;;;;;4901121;29;19919;-86
2023/04/12 17:26:43;;;;;;;;;;;;;;;;;;4915613;29;19915;-86
2023/04/12 17:29:09;;;;;;;;;;;;;;;;;;4901362;29;19995;-85
2023/04/12 17:31:34;;;;;;;;;;;;;;;;;;4884798;29;19916;-85
2023/04/12 17:34:00;;;;;;;;;;;;;;;;;;4899643;29;19915;-87
2023/04/12 17:36:30;;;;;;;;;;;;;;;;;;4900108;29;19954;-84
2023/04/12 17:38:55;;;;;;;;;;;;;;;;;;4884204;29;20342;-79
2023/04/12 17:41:21;;;;;;;;;;;;;;;;;;4900332;29;19918;-82
2023/04/12 17:43:46;;;;;;;;;;;;;;;;;;4883753;29;19975;-79
2023/04/12 17:46:11;;;;;;;;;;;;;;;;;;4899369;29;19915;-81
2023/04/12 17:48:38;;;;;;;;;;;;;;;;;;4900275;29;20403;-81
2023/04/12 17:51:04;;;;;;;;;;;;;;;;;;4882499;29;19922;-85
2023/04/12 17:53:29;;;;;;;;;;;;;;;;;;4881714;29;20010;-86
2023/04/12 17:55:55;;;;;;;;;;;;;;;;;;4914072;29;19968;-85
2023/04/12 17:58:20;;;;;;;;;;;;;;;;;;4899202;29;20006;-86
2023/04/12 18:00:45;;;;;;;;;;;;;;;;;;4899427;29;20386;-84
2023/04/12 18:03:11;;;;;;;;;;;;;;;;;;4900254;29;19926;-85
2023/04/12 18:05:37;;;;;;;;;;;;;;;;;;4898621;29;19916;-85
2023/04/12 18:08:02;;;;;;;;;;;;;;;;;;4884289;29;19916;-85
2023/04/12 18:10:28;;;;;;;;;;;;;;;;;;4900265;29;19923;-85
2023/04/12 18:12:54;;;;;;;;;;;;;;;;;;4884817;29;20394;-82
2023/04/12 18:15:19;;;;;;;;;;;;;;;;;;4884957;29;19915;-85
2023/04/12 18:17:45;;;;;;;;;;;;;;;;;;4919098;29;19992;-90
2023/04/12 18:20:10;;;;;;;;;;;;;;;;;;4892970;29;19983;-79
2023/04/12 18:22:36;;;;;;;;;;;;;;;;;;4880577;29;19979;-78
2023/04/12 18:25:01;;;;;;;;;;;;;;;;;;4890313;29;19919;-79
2023/04/12 18:27:27;;;;;;;;;;;;;;;;;;4894338;29;19922;-79
2023/04/12 18:29:52;;;;;;;;;;;;;;;;;;4895356;29;19987;-79
2023/04/12 18:32:17;;;;;;;;;;;;;;;;;;4885438;29;20015;-79
2023/04/12 18:34:43;;;;;;;;;;;;;;;;;;4883513;29;20357;-78
2023/04/12 18:37:08;;;;;;;;;;;;;;;;;;4882634;29;19916;-78
2023/04/12 18:39:34;;;;;;;;;;;;;;;;;;4894202;29;20291;-79
2023/04/12 18:42:00;;;;;;;;;;;;;;;;;;4899177;29;19975;-79
2023/04/12 18:44:26;;;;;;;;;;;;;;;;;;4897618;29;19970;-80
2023/04/12 18:46:51;;;;;;;;;;;;;;;;;;4897029;29;19916;-79
2023/04/12 18:49:17;;;;;;;;;;;;;;;;;;4898712;29;19922;-78
2023/04/12 18:51:42;;;;;;;;;;;;;;;;;;4897593;29;19915;-79
2023/04/12 18:54:11;;;;;;;;;;;;;;;;;;4898682;29;20149;-78
2023/04/12 18:56:37;;;;;;;;;;;;;;;;;;4898047;29;19925;-80
2023/04/12 18:59:03;;;;;;;;;;;;;;;;;;4898357;29;20014;-79
2023/04/12 19:01:28;;;;;;;;;;;;;;;;;;4898704;29;20375;-79
2023/04/12 19:03:54;;;;;;;;;;;;;;;;;;4898041;29;19926;-79
2023/04/12 19:06:19;;;;;;;;;;;;;;;;;;4898119;29;19963;-80
2023/04/12 19:08:45;;;;;;;;;;;;;;;;;;4897501;29;20431;-89
2023/04/12 19:11:10;;;;;;;;;;;;;;;;;;4885589;29;19916;-90
2023/04/12 19:13:37;;;;;;;;;;;;;;;;;;4889658;29;19943;-90
2023/04/12 19:16:06;;;;;;;;;;;;;;;;;;4906298;29;19915;-91
2023/04/12 19:18:31;;;;;;;;;;;;;;;;;;4871758;29;19938;-90
2023/04/12 19:20:56;;;;;;;;;;;;;;;;;;4889491;29;20372;-90
2023/04/12 19:23:23;;;;;;;;;;;;;;;;;;4866480;29;19919;-88
2023/04/12 19:25:48;;;;;;;;;;;;;;;;;;4880871;29;19912;-92
2023/04/12 19:28:14;;;;;;;;;;;;;;;;;;4884233;29;19916;-93
2023/04/12 19:30:40;;;;;;;;;;;;;;;;;;4865162;29;20258;-88
2023/04/12 19:33:08;;;;;;;;;;;;;;;;;;4878978;29;20011;-87
2023/04/12 19:35:34;;;;;;;;;;;;;;;;;;4879586;29;19920;-82
2023/04/12 19:37:59;;;;;;;;;;;;;;;;;;4879202;29;20410;-87
2023/04/12 19:40:27;;;;;;;;;;;;;;;;;;4882433;29;19915;-88
2023/04/12 19:42:52;;;;;;;;;;;;;;;;;;4898685;29;20336;-88
2023/04/12 19:45:18;;;;;;;;;;;;;;;;;;4898056;29;19947;-87
2023/04/12 19:47:43;;;;;;;;;;;;;;;;;;4897269;29;19962;-88
2023/04/12 19:50:09;;;;;;;;;;;;;;;;;;4880133;29;19944;-88
2023/04/12 19:52:34;;;;;;;;;;;;;;;;;;4881910;29;19911;-88
2023/04/12 19:54:59;;;;;;;;;;;;;;;;;;4898599;29;19975;-88
2023/04/12 19:57:26;;;;;;;;;;;;;;;;;;4901675;29;20025;-90
2023/04/12 19:59:51;;;;;;;;;;;;;;;;;;4879768;29;19910;-89
2023/04/12 20:02:17;;;;;;;;;;;;;;;;;;4875572;29;19931;-92
2023/04/12 20:04:43;;;;;;;;;;;;;;;;;;4883921;29;20379;-90
2023/04/12 20:07:08;;;;;;;;;;;;;;;;;;4904457;29;19915;-90
2023/04/12 20:09:37;;;;;;;;;;;;;;;;;;4883336;29;19916;-89
2023/04/12 20:12:02;;;;;;;;;;;;;;;;;;4892533;29;19915;-90
2023/04/12 20:14:28;;;;;;;;;;;;;;;;;;4884776;29;20159;-87
2023/04/12 20:16:56;;;;;;;;;;;;;;;;;;4880768;29;19922;-87
2023/04/12 20:19:22;;;;;;;;;;;;;;;;;;4882207;29;19915;-86
2023/04/12 20:21:47;;;;;;;;;;;;;;;;;;4882260;29;19942;-87
2023/04/12 20:24:13;;;;;;;;;;;;;;;;;;4881990;29;19920;-90
2023/04/12 20:26:38;;;;;;;;;;;;;;;;;;4881069;29;19916;-88
2023/04/12 20:29:04;;;;;;;;;;;;;;;;;;4897330;29;19916;-86
2023/04/12 20:31:29;;;;;;;;;;;;;;;;;;4898686;29;19972;-86
2023/04/12 20:33:57;;;;;;;;;;;;;;;;;;4898045;29;19925;-88
2023/04/12 20:36:22;;;;;;;;;;;;;;;;;;4880888;29;19938;-87
2023/04/12 20:38:48;;;;;;;;;;;;;;;;;;4884777;29;20376;-86
2023/04/12 20:41:13;;;;;;;;;;;;;;;;;;4905759;29;19923;-85
2023/04/12 20:43:39;;;;;;;;;;;;;;;;;;4910918;29;19920;-85
2023/04/12 20:46:08;;;;;;;;;;;;;;;;;;4919938;29;19899;-84
2023/04/12 20:48:34;;;;;;;;;;;;;;;;;;4919877;29;19979;-83
2023/04/12 20:51:00;;;;;;;;;;;;;;;;;;4914921;29;19899;-85
2023/04/12 20:53:26;;;;;;;;;;;;;;;;;;4915366;29;19922;-86
2023/04/12 20:55:52;;;;;;;;;;;;;;;;;;4908321;29;20370;-83